Time;durP1;ratioP1;P1;durP2;ratioP2;P2;SDS_P1;SDS_P2;PMS_P1;PMS_P2;Temp;Humidity;BMP_temperature;BMP_pressure;BME280_temperature;BME280_humidity;BME280_pressure;Samples;Min_cycle;Max_cycle;Signal;HPM_P1;HPM_P2
2022/07/20 00:00:44;;;;;;;;;;;;;;;14.27;94.29;100202.19;4953629;29;811;-65
2022/07/20 00:03:14;;;;;;;;;;;;;;;14.27;94.36;100206.94;4953446;29;823;-65
2022/07/20 00:05:41;;;;;;;;;;;;;;;14.26;94.25;100217.28;4935963;29;1198;-65
2022/07/20 00:08:08;;;;;;;;;;;;;;;14.25;94.51;100215.72;4935781;29;1940;-65
2022/07/20 00:13:19;;;;;;;;;;;;;;;14.32;94.49;100209.25;4953253;29;669;-65
2022/07/20 00:15:46;;;;;;;;;;;;;;;14.36;94.29;100209.19;4953398;29;827;-65
2022/07/20 00:18:13;;;;;;;;;;;;;;;14.37;94.23;100206.00;4953168;29;874;-65
2022/07/20 00:20:40;;;;;;;;;;;;;;;14.33;94.10;100210.03;4956018;28;830;-65
2022/07/20 00:23:06;;;;;;;;;;;;;;;14.28;93.97;100208.53;4957205;29;836;-65
2022/07/20 00:25:33;;;;;;;;;;;;;;;14.23;94.25;100206.19;4957383;29;818;-65
2022/07/20 00:28:00;;;;;;;;;;;;;;;14.19;94.32;100208.22;4957392;29;1886;-65
2022/07/20 00:30:27;;;;;;;;;;;;;;;14.12;94.26;100217.44;4957012;29;748;-65
2022/07/20 00:32:54;;;;;;;;;;;;;;;14.04;94.60;100208.44;4956454;29;1280;-65
2022/07/20 00:35:21;;;;;;;;;;;;;;;14.02;95.05;100205.28;4956383;29;906;-65
2022/07/20 00:37:48;;;;;;;;;;;;;;;14.04;95.24;100205.66;4956924;29;749;-65
2022/07/20 00:40:14;;;;;;;;;;;;;;;14.10;95.09;100205.97;4939020;29;1177;-65
2022/07/20 00:42:41;;;;;;;;;;;;;;;14.11;95.00;100207.53;4957005;29;849;-65
2022/07/20 00:45:09;;;;;;;;;;;;;;;14.10;95.02;100203.19;4956171;29;811;-65
2022/07/20 00:47:35;;;;;;;;;;;;;;;14.08;94.66;100200.84;4956485;29;2001;-65
2022/07/20 00:50:02;;;;;;;;;;;;;;;14.09;94.77;100202.41;4956030;29;831;-65
2022/07/20 00:52:29;;;;;;;;;;;;;;;14.09;94.49;100194.06;4955931;29;881;-65
2022/07/20 00:54:55;;;;;;;;;;;;;;;14.11;94.61;100192.88;4955959;29;856;-65
2022/07/20 00:57:21;;;;;;;;;;;;;;;14.09;94.41;100194.06;4955904;29;811;-65
2022/07/20 00:59:48;;;;;;;;;;;;;;;14.09;94.19;100185.72;4955828;29;848;-64
2022/07/20 01:02:15;;;;;;;;;;;;;;;14.11;94.06;100192.88;4955800;29;796;-65
2022/07/20 01:04:41;;;;;;;;;;;;;;;14.10;93.85;100183.72;4955801;29;795;-65
2022/07/20 01:07:08;;;;;;;;;;;;;;;14.11;94.05;100187.31;4955710;29;852;-65
2022/07/20 01:09:34;;;;;;;;;;;;;;;14.16;93.72;100186.84;4953699;29;1890;-65
2022/07/20 01:12:01;;;;;;;;;;;;;;;14.18;93.38;100185.19;4955641;29;818;-65
2022/07/20 01:14:28;;;;;;;;;;;;;;;14.13;93.65;100177.34;4955674;29;827;-64
2022/07/20 01:16:54;;;;;;;;;;;;;;;14.08;93.60;100178.59;4955489;29;875;-65
2022/07/20 01:19:21;;;;;;;;;;;;;;;14.03;93.62;100181.03;4955468;29;799;-65
2022/07/20 01:21:48;;;;;;;;;;;;;;;13.96;93.36;100184.72;4955541;29;815;-65
2022/07/20 01:24:14;;;;;;;;;;;;;;;13.94;93.44;100176.00;4938156;29;1289;-64
2022/07/20 01:26:41;;;;;;;;;;;;;;;13.98;93.12;100182.31;4955424;29;803;-65
2022/07/20 01:29:08;;;;;;;;;;;;;;;14.01;93.29;100172.34;4955266;29;1890;-65
2022/07/20 01:31:35;;;;;;;;;;;;;;;14.06;92.52;100175.44;4954414;28;1020;-65
2022/07/20 01:34:02;;;;;;;;;;;;;;;14.11;92.12;100159.50;4955083;29;1250;-65
2022/07/20 01:36:29;;;;;;;;;;;;;;;14.15;91.96;100174.16;4955252;29;787;-64
2022/07/20 01:38:55;;;;;;;;;;;;;;;14.12;91.93;100175.75;4937884;29;1365;-65
2022/07/20 01:41:22;;;;;;;;;;;;;;;14.06;91.88;100183.78;4955201;29;904;-65
2022/07/20 01:43:48;;;;;;;;;;;;;;;14.03;92.14;100175.50;4955053;29;815;-64
2022/07/20 01:46:14;;;;;;;;;;;;;;;13.98;91.99;100179.53;4955276;29;898;-65
2022/07/20 01:48:41;;;;;;;;;;;;;;;13.94;92.33;100170.44;4954806;29;1972;-65
2022/07/20 01:51:08;;;;;;;;;;;;;;;13.97;92.33;100168.81;4954905;29;845;-65
2022/07/20 01:53:35;;;;;;;;;;;;;;;13.99;92.52;100169.97;4954911;29;811;-65
2022/07/20 01:56:02;;;;;;;;;;;;;;;14.00;92.30;100171.56;4937600;29;1218;-65
2022/07/20 01:58:28;;;;;;;;;;;;;;;13.98;91.95;100167.63;4954845;29;819;-65
2022/07/20 02:00:55;;;;;;;;;;;;;;;13.98;92.32;100162.84;4954752;29;808;-64
2022/07/20 02:03:21;;;;;;;;;;;;;;;13.97;91.99;100164.03;4954733;29;803;-64
2022/07/20 02:05:48;;;;;;;;;;;;;;;14.00;91.77;100159.66;4954759;29;836;-65
2022/07/20 02:08:15;;;;;;;;;;;;;;;14.07;91.51;100165.91;4954743;29;1895;-65
2022/07/20 02:10:41;;;;;;;;;;;;;;;14.14;90.98;100159.44;4954536;29;860;-65
2022/07/20 02:13:08;;;;;;;;;;;;;;;14.15;90.55;100151.91;4954886;29;807;-65
2022/07/20 02:18:19;;;;;;;;;;;;;;;14.15;90.12;100154.69;4954507;29;696;-65
2022/07/20 02:20:46;;;;;;;;;;;;;;;14.05;90.19;100165.53;4954562;29;851;-65
2022/07/20 02:23:12;;;;;;;;;;;;;;;14.00;90.08;100156.88;4954373;29;897;-64
2022/07/20 02:25:39;;;;;;;;;;;;;;;13.95;90.20;100162.88;4954278;29;867;-65
2022/07/20 02:28:06;;;;;;;;;;;;;;;13.88;90.08;100163.75;4936974;29;1887;-65
2022/07/20 02:30:33;;;;;;;;;;;;;;;13.92;89.90;100166.50;4954219;29;816;-65
2022/07/20 02:33:01;;;;;;;;;;;;;;;13.94;89.62;100162.09;4954330;29;1282;-65
2022/07/20 02:35:27;;;;;;;;;;;;;;;13.95;89.57;100162.88;4954134;29;851;-65
2022/07/20 02:37:54;;;;;;;;;;;;;;;13.92;89.32;100164.50;4954101;29;878;-64
2022/07/20 02:40:21;;;;;;;;;;;;;;;13.88;89.20;100161.00;4954151;29;799;-64
2022/07/20 02:42:48;;;;;;;;;;;;;;;13.83;89.09;100162.25;4953831;28;842;-65
2022/07/20 02:45:14;;;;;;;;;;;;;;;13.82;89.39;100157.88;4954042;29;840;-65
2022/07/20 02:47:44;;;;;;;;;;;;;;;14.01;88.09;100156.44;4953840;29;1967;-65
2022/07/20 02:50:11;;;;;;;;;;;;;;;14.43;85.85;100153.50;4936714;29;804;-65
2022/07/20 02:52:40;;;;;;;;;;;;;;;14.36;85.59;100159.94;4953978;29;827;-64
2022/07/20 02:55:08;;;;;;;;;;;;;;;14.22;85.65;100160.94;4953901;29;795;-64
2022/07/20 02:57:33;;;;;;;;;;;;;;;14.01;86.07;100166.78;4936519;29;1198;-65
2022/07/20 03:00:00;;;;;;;;;;;;;;;14.03;85.93;100181.03;4953908;29;823;-64
2022/07/20 03:02:27;;;;;;;;;;;;;;;13.99;85.70;100174.75;4953902;29;819;-65
2022/07/20 03:04:53;;;;;;;;;;;;;;;13.97;85.39;100177.94;4954044;29;800;-64
2022/07/20 03:07:20;;;;;;;;;;;;;;;13.89;85.33;100180.03;4953688;29;890;-64
2022/07/20 03:09:46;;;;;;;;;;;;;;;13.77;85.69;100177.78;4953634;29;1934;-65
2022/07/20 03:12:13;;;;;;;;;;;;;;;13.69;85.93;100170.75;4953631;29;1015;-65
2022/07/20 03:14:39;;;;;;;;;;;;;;;13.64;86.34;100176.75;4953607;29;890;-64
2022/07/20 03:17:06;;;;;;;;;;;;;;;13.55;86.88;100177.25;4953518;29;851;-65
2022/07/20 03:19:32;;;;;;;;;;;;;;;13.51;87.49;100182.06;4953603;29;843;-65
2022/07/20 03:21:59;;;;;;;;;;;;;;;13.51;87.41;100182.06;4953623;29;891;-65
2022/07/20 03:24:26;;;;;;;;;;;;;;;13.49;87.66;100181.69;4953789;29;1013;-65
2022/07/20 03:26:52;;;;;;;;;;;;;;;13.51;87.72;100178.50;4953747;29;865;-65
2022/07/20 03:29:18;;;;;;;;;;;;;;;13.55;87.61;100188.38;4953610;29;1890;-64
2022/07/20 03:31:45;;;;;;;;;;;;;;;13.57;88.08;100187.94;4954199;29;992;-65
2022/07/20 03:34:12;;;;;;;;;;;;;;;13.64;87.85;100187.88;4953428;29;1447;-65
2022/07/20 03:36:38;;;;;;;;;;;;;;;13.69;87.15;100188.19;4953617;29;863;-65
2022/07/20 03:39:05;;;;;;;;;;;;;;;13.76;87.17;100189.31;4953367;29;1107;-64
2022/07/20 03:41:32;;;;;;;;;;;;;;;13.85;87.20;100193.19;4953353;29;807;-64
2022/07/20 03:43:59;;;;;;;;;;;;;;;13.99;87.09;100194.19;4953304;29;863;-64
2022/07/20 03:46:26;;;;;;;;;;;;;;;14.12;86.85;100198.00;4953207;29;867;-64
2022/07/20 03:48:53;;;;;;;;;;;;;;;14.25;86.50;100198.22;4953303;29;1911;-64
2022/07/20 03:51:19;;;;;;;;;;;;;;;14.34;86.35;100190.16;4953351;29;808;-64
2022/07/20 03:53:46;;;;;;;;;;;;;;;14.45;86.19;100195.56;4953241;28;823;-64
2022/07/20 03:56:12;;;;;;;;;;;;;;;14.53;86.05;100194.25;4956948;29;870;-64
2022/07/20 03:58:39;;;;;;;;;;;;;;;14.64;85.60;100199.69;4956970;29;823;-64
2022/07/20 04:01:06;;;;;;;;;;;;;;;14.80;85.19;100201.81;4956980;29;803;-64
2022/07/20 04:03:32;;;;;;;;;;;;;;;14.94;84.69;100200.81;4956917;29;859;-64
2022/07/20 04:05:59;;;;;;;;;;;;;;;15.07;84.67;100210.13;4956846;29;860;-64
2022/07/20 04:08:26;;;;;;;;;;;;;;;15.23;84.03;100212.25;4956733;29;1895;-64
2022/07/20 04:10:53;;;;;;;;;;;;;;;15.42;83.29;100210.72;4956836;29;943;-64
2022/07/20 04:13:20;;;;;;;;;;;;;;;15.63;82.33;100221.47;4957009;29;808;-64
2022/07/20 04:15:47;;;;;;;;;;;;;;;15.83;80.92;100215.94;4956555;29;851;-64
2022/07/20 04:18:17;;;;;;;;;;;;;;;16.02;79.95;100213.56;4956663;29;875;-64
2022/07/20 04:20:43;;;;;;;;;;;;;;;16.21;78.51;100214.75;4956593;29;819;-64
2022/07/20 04:23:11;;;;;;;;;;;;;;;16.40;77.58;100215.94;4956742;29;791;-64
2022/07/20 04:25:37;;;;;;;;;;;;;;;16.60;76.63;100213.91;4956486;29;850;-64
2022/07/20 04:28:04;;;;;;;;;;;;;;;16.81;75.91;100207.03;4956438;29;1919;-64
2022/07/20 04:30:33;;;;;;;;;;;;;;;17.00;75.20;100210.97;4956345;29;795;-64
2022/07/20 04:32:59;;;;;;;;;;;;;;;17.20;74.46;100219.25;4938833;29;1356;-64
2022/07/20 04:35:26;;;;;;;;;;;;;;;17.35;73.74;100217.66;4956345;29;834;-64
2022/07/20 04:37:52;;;;;;;;;;;;;;;17.48;73.19;100216.94;4956231;29;890;-64
2022/07/20 04:40:19;;;;;;;;;;;;;;;17.61;72.65;100220.56;4956241;29;874;-64
2022/07/20 04:42:46;;;;;;;;;;;;;;;17.74;72.55;100223.44;4956126;29;834;-64
2022/07/20 04:45:12;;;;;;;;;;;;;;;17.87;72.05;100218.69;4956109;29;796;-64
2022/07/20 04:47:39;;;;;;;;;;;;;;;17.99;71.64;100228.34;4956023;29;1966;-64
2022/07/20 04:50:06;;;;;;;;;;;;;;;18.10;71.17;100222.44;4955989;29;795;-64
2022/07/20 04:52:33;;;;;;;;;;;;;;;18.19;70.61;100227.38;4956052;29;950;-64
2022/07/20 04:54:59;;;;;;;;;;;;;;;18.34;69.84;100225.72;4955947;29;843;-63
2022/07/20 04:57:26;;;;;;;;;;;;;;;18.43;68.93;100225.84;4955920;29;847;-64
2022/07/20 04:59:53;;;;;;;;;;;;;;;18.57;68.60;100233.81;4938670;29;1301;-64
2022/07/20 05:02:20;;;;;;;;;;;;;;;18.73;68.29;100226.50;4956096;29;800;-63
2022/07/20 05:04:47;;;;;;;;;;;;;;;18.87;67.87;100225.31;4955783;28;914;-64
2022/07/20 05:07:14;;;;;;;;;;;;;;;18.97;66.95;100222.16;4938583;29;1173;-63
2022/07/20 05:09:41;;;;;;;;;;;;;;;19.17;66.61;100232.31;4955603;29;1906;-63
2022/07/20 05:12:07;;;;;;;;;;;;;;;19.43;65.92;100221.81;4955858;29;902;-63
2022/07/20 05:14:34;;;;;;;;;;;;;;;19.66;64.88;100225.47;4955517;29;877;-63
2022/07/20 05:17:00;;;;;;;;;;;;;;;19.83;63.80;100226.88;4955645;29;823;-63
2022/07/20 05:19:27;;;;;;;;;;;;;;;20.08;62.86;100228.75;4955577;29;855;-63
2022/07/20 05:21:53;;;;;;;;;;;;;;;20.38;61.47;100220.81;4938271;29;1359;-63
2022/07/20 05:24:20;;;;;;;;;;;;;;;20.53;60.27;100230.25;4955498;29;870;-63
2022/07/20 05:26:47;;;;;;;;;;;;;;;20.63;60.06;100227.50;4955369;29;874;-63
2022/07/20 05:29:13;;;;;;;;;;;;;;;20.74;59.87;100228.66;4955377;29;1886;-63
2022/07/20 05:31:39;;;;;;;;;;;;;;;20.90;59.20;100233.22;4955451;29;919;-63
2022/07/20 05:34:06;;;;;;;;;;;;;;;21.01;57.98;100232.78;4955082;29;1234;-63
2022/07/20 05:36:33;;;;;;;;;;;;;;;21.20;57.51;100237.19;4955313;29;800;-62
2022/07/20 05:38:59;;;;;;;;;;;;;;;21.55;56.68;100236.16;4955365;29;799;-63
2022/07/20 05:41:26;;;;;;;;;;;;;;;21.88;55.85;100241.16;4955101;29;858;-62
2022/07/20 05:43:53;;;;;;;;;;;;;;;22.30;54.17;100237.69;4955087;29;803;-62
2022/07/20 05:46:19;;;;;;;;;;;;;;;22.72;52.58;100239.72;4954971;29;854;-63
2022/07/20 05:48:46;;;;;;;;;;;;;;;23.33;51.10;100250.84;4955059;29;1970;-63
2022/07/20 05:51:13;;;;;;;;;;;;;;;24.04;49.58;100243.53;4954870;29;868;-62
2022/07/20 05:53:39;;;;;;;;;;;;;;;25.11;47.67;100233.19;4955161;29;871;-63
2022/07/20 05:56:06;;;;;;;;;;;;;;;26.27;44.50;100234.31;4954835;29;808;-63
2022/07/20 05:58:33;;;;;;;;;;;;;;;27.61;42.17;100238.50;4937622;29;1376;-63
2022/07/20 06:01:00;;;;;;;;;;;;;;;28.93;38.88;100228.28;4954725;29;938;-62
2022/07/20 06:03:27;;;;;;;;;;;;;;;29.62;37.13;100226.78;4954748;29;793;-63
2022/07/20 06:05:53;;;;;;;;;;;;;;;30.28;35.87;100230.53;4954720;29;873;-63
2022/07/20 06:08:20;;;;;;;;;;;;;;;30.85;34.13;100233.63;4954550;29;1887;-63
2022/07/20 06:10:47;;;;;;;;;;;;;;;31.28;33.67;100226.41;4954654;29;839;-62
2022/07/20 06:13:13;;;;;;;;;;;;;;;31.87;32.60;100229.56;4937191;29;1288;-63
2022/07/20 06:15:40;;;;;;;;;;;;;;;32.17;31.64;100226.53;4954523;29;858;-62
2022/07/20 06:18:07;;;;;;;;;;;;;;;32.73;31.08;100228.47;4954147;28;855;-63
2022/07/20 06:20:35;;;;;;;;;;;;;;;33.37;30.37;100229.56;4954455;29;827;-62
2022/07/20 06:23:02;;;;;;;;;;;;;;;33.74;28.43;100225.66;4937151;29;1210;-62
2022/07/20 06:25:29;;;;;;;;;;;;;;;33.61;29.11;100230.66;4954383;29;800;-63
2022/07/20 06:27:58;;;;;;;;;;;;;;;33.69;27.83;100226.56;4954160;29;1890;-62
2022/07/20 06:30:25;;;;;;;;;;;;;;;33.73;25.79;100226.22;4954243;29;827;-63
2022/07/20 06:32:52;;;;;;;;;;;;;;;33.61;26.27;100227.78;4954324;29;1149;-63
2022/07/20 06:35:18;;;;;;;;;;;;;;;33.83;25.45;100227.28;4954442;29;828;-63
2022/07/20 06:37:45;;;;;;;;;;;;;;;33.64;24.37;100227.47;4936875;29;1313;-63
2022/07/20 06:40:12;;;;;;;;;;;;;;;33.15;24.70;100240.16;4954314;29;871;-63
2022/07/20 06:42:39;;;;;;;;;;;;;;;33.04;25.09;100234.63;4953972;29;827;-62
2022/07/20 06:45:06;;;;;;;;;;;;;;;33.82;24.97;100220.03;4954169;29;874;-63
2022/07/20 06:47:33;;;;;;;;;;;;;;;34.14;24.16;100230.50;4953903;29;1910;-62
2022/07/20 06:50:01;;;;;;;;;;;;;;;33.91;23.58;100227.38;4936731;29;808;-62
2022/07/20 06:52:27;;;;;;;;;;;;;;;33.91;23.92;100224.53;4953832;29;811;-63
2022/07/20 06:54:54;;;;;;;;;;;;;;;34.32;23.75;100223.78;4953913;29;828;-62
2022/07/20 06:57:21;;;;;;;;;;;;;;;34.14;23.59;100225.53;4954040;29;795;-63
2022/07/20 06:59:49;;;;;;;;;;;;;;;34.13;23.22;100220.38;4953774;29;856;-63
2022/07/20 07:02:15;;;;;;;;;;;;;;;34.03;23.22;100220.03;4953789;29;816;-63
2022/07/20 07:04:42;;;;;;;;;;;;;;;34.00;23.07;100215.44;4953867;29;822;-63
2022/07/20 07:07:09;;;;;;;;;;;;;;;34.10;23.00;100227.19;4953758;29;791;-63
2022/07/20 07:09:36;;;;;;;;;;;;;;;34.58;23.40;100219.97;4953670;29;1949;-63
2022/07/20 07:12:03;;;;;;;;;;;;;;;35.23;22.81;100216.44;4953796;29;929;-63
2022/07/20 07:14:29;;;;;;;;;;;;;;;35.21;22.34;100221.19;4953867;29;890;-63
2022/07/20 07:16:56;;;;;;;;;;;;;;;34.71;22.73;100221.25;4953967;29;800;-63
2022/07/20 07:19:22;;;;;;;;;;;;;;;35.02;22.67;100221.47;4936367;29;1292;-63
2022/07/20 07:21:49;;;;;;;;;;;;;;;35.32;22.42;100218.03;4953516;29;851;-63
2022/07/20 07:24:16;;;;;;;;;;;;;;;35.39;22.04;100217.28;4953538;29;835;-63
2022/07/20 07:26:43;;;;;;;;;;;;;;;35.43;22.33;100216.91;4953496;29;998;-63
2022/07/20 07:29:10;;;;;;;;;;;;;;;35.82;21.65;100209.19;4954004;28;1894;-63
2022/07/20 07:31:37;;;;;;;;;;;;;;;35.95;21.71;100215.56;4957402;29;949;-63
2022/07/20 07:34:04;;;;;;;;;;;;;;;36.36;22.61;100216.59;4957351;29;1375;-63
2022/07/20 07:36:31;;;;;;;;;;;;;;;36.11;21.64;100215.59;4957449;29;806;-63
2022/07/20 07:38:58;;;;;;;;;;;;;;;35.72;22.33;100217.59;4957333;29;807;-63
2022/07/20 07:41:25;;;;;;;;;;;;;;;35.86;22.01;100209.59;4957308;29;870;-61
2022/07/20 07:43:51;;;;;;;;;;;;;;;35.72;21.74;100212.63;4957312;29;890;-63
2022/07/20 07:46:19;;;;;;;;;;;;;;;35.72;22.35;100215.50;4957212;29;898;-63
2022/07/20 07:48:46;;;;;;;;;;;;;;;35.80;22.05;100209.00;4957247;29;1977;-63
2022/07/20 07:51:13;;;;;;;;;;;;;;;35.96;21.98;100208.47;4957406;29;940;-62
2022/07/20 07:53:39;;;;;;;;;;;;;;;35.81;21.80;100210.56;4957058;29;831;-63
2022/07/20 07:56:06;;;;;;;;;;;;;;;36.24;21.65;100206.81;4957089;29;858;-63
2022/07/20 07:58:33;;;;;;;;;;;;;;;36.65;20.86;100201.25;4957049;29;898;-63
2022/07/20 08:01:00;;;;;;;;;;;;;;;36.64;21.03;100206.25;4956909;29;878;-63
2022/07/20 08:03:27;;;;;;;;;;;;;;;36.74;21.13;100203.53;4956988;29;878;-64
2022/07/20 08:05:53;;;;;;;;;;;;;;;36.92;20.79;100207.34;4956869;29;843;-63
2022/07/20 08:08:20;;;;;;;;;;;;;;;36.62;20.28;100211.81;4957066;29;1911;-63
2022/07/20 08:10:47;;;;;;;;;;;;;;;36.53;20.10;100206.59;4956757;29;831;-63
2022/07/20 08:13:14;;;;;;;;;;;;;;;36.36;20.53;100204.28;4956791;29;874;-63
2022/07/20 08:15:41;;;;;;;;;;;;;;;36.28;19.80;100200.69;4956819;29;851;-64
2022/07/20 08:18:07;;;;;;;;;;;;;;;36.21;20.54;100198.53;4956724;29;796;-63
2022/07/20 08:20:34;;;;;;;;;;;;;;;36.21;20.28;100187.03;4956630;29;827;-63
2022/07/20 08:23:01;;;;;;;;;;;;;;;36.74;20.30;100195.69;4956515;29;838;-64
2022/07/20 08:25:28;;;;;;;;;;;;;;;36.58;20.98;100171.88;4956566;29;879;-62
2022/07/20 08:27:54;;;;;;;;;;;;;;;36.22;21.18;100188.59;4956605;29;1890;-63
2022/07/20 08:30:20;;;;;;;;;;;;;;;36.67;20.83;100184.16;4956442;29;871;-64
2022/07/20 08:32:47;;;;;;;;;;;;;;;36.66;19.63;100194.94;4956658;29;1196;-63
2022/07/20 08:35:14;;;;;;;;;;;;;;;35.92;21.11;100190.06;4956656;29;804;-63
2022/07/20 08:37:41;;;;;;;;;;;;;;;35.84;21.01;100190.03;4956472;29;868;-63
2022/07/20 08:40:08;;;;;;;;;;;;;;;35.92;20.99;100190.81;4956164;28;823;-64
2022/07/20 08:42:35;;;;;;;;;;;;;;;35.48;20.84;100172.84;4956627;29;847;-64
2022/07/20 08:45:01;;;;;;;;;;;;;;;35.01;22.08;100176.84;4956381;29;839;-63
2022/07/20 08:47:28;;;;;;;;;;;;;;;35.76;21.69;100172.78;4957147;29;831;-63
2022/07/20 08:49:56;;;;;;;;;;;;;;;35.72;21.03;100165.84;4956329;29;1910;-63
2022/07/20 08:52:23;;;;;;;;;;;;;;;35.55;21.95;100166.38;4939000;29;1285;-63
2022/07/20 08:54:50;;;;;;;;;;;;;;;35.86;21.25;100167.22;4956233;29;769;-62
2022/07/20 08:57:17;;;;;;;;;;;;;;;35.55;21.26;100169.25;4956449;29;850;-62
2022/07/20 08:59:44;;;;;;;;;;;;;;;35.38;22.66;100161.91;4956161;29;847;-64
2022/07/20 09:02:11;;;;;;;;;;;;;;;35.20;21.17;100163.00;4956209;29;838;-62
2022/07/20 09:04:56;;;;;;;;;;;;;;;34.36;23.02;100166.06;4955938;29;890;-64
2022/07/20 09:07:39;;;;;;;;;;;;;;;34.23;23.55;100163.28;4955911;29;810;-64
2022/07/20 09:10:07;;;;;;;;;;;;;;;34.44;22.77;100161.16;4955674;29;862;-64
2022/07/20 09:12:52;;;;;;;;;;;;;;;34.70;23.12;100148.72;4955733;29;815;-64
2022/07/20 09:15:40;;;;;;;;;;;;;;;34.74;22.44;100154.13;4955844;29;885;-64
2022/07/20 09:18:08;;;;;;;;;;;;;;;34.42;22.64;100155.22;4955362;29;1190;-64
2022/07/20 09:20:35;;;;;;;;;;;;;;;34.05;23.29;100156.41;4955666;29;870;-64
2022/07/20 09:23:03;;;;;;;;;;;;;;;33.67;23.37;100151.84;4955446;29;860;-63
2022/07/20 09:25:29;;;;;;;;;;;;;;;33.54;23.89;100146.91;4955494;29;858;-64
2022/07/20 09:27:56;;;;;;;;;;;;;;;33.49;24.60;100150.66;4955502;29;1945;-64
2022/07/20 09:30:23;;;;;;;;;;;;;;;33.59;24.63;100144.47;4955365;29;866;-64
2022/07/20 09:32:52;;;;;;;;;;;;;;;33.96;25.17;100141.22;4955427;29;1183;-64
2022/07/20 09:35:22;;;;;;;;;;;;;;;33.85;25.34;100144.38;4955378;29;815;-64
2022/07/20 09:37:49;;;;;;;;;;;;;;;33.87;24.02;100143.81;4955183;29;823;-64
2022/07/20 09:40:16;;;;;;;;;;;;;;;33.53;25.39;100141.72;4955115;29;787;-65
2022/07/20 09:42:46;;;;;;;;;;;;;;;33.54;25.31;100126.84;4955150;29;867;-64
2022/07/20 09:45:24;;;;;;;;;;;;;;;33.51;24.59;100127.19;4955399;29;985;-64
2022/07/20 09:48:07;;;;;;;;;;;;;;;33.04;25.47;100125.09;4955021;29;1959;-65
2022/07/20 09:50:35;;;;;;;;;;;;;;;32.68;26.33;100137.75;4955044;29;831;-64
2022/07/20 09:53:02;;;;;;;;;;;;;;;32.66;27.41;100131.81;4954155;28;863;-64
2022/07/20 09:55:30;;;;;;;;;;;;;;;32.55;26.57;100124.22;4954892;29;862;-64
2022/07/20 09:57:57;;;;;;;;;;;;;;;32.47;26.34;100116.81;4954921;29;874;-64
2022/07/20 10:00:24;;;;;;;;;;;;;;;32.05;26.72;100113.66;4954796;29;840;-64
2022/07/20 10:02:54;;;;;;;;;;;;;;;32.01;26.67;100111.16;4955057;29;899;-64
2022/07/20 10:33:48;;;;;;;;;;;;;;;32.50;26.81;100081.41;5092571;23;1522;-67
2022/07/20 10:39:20;;;;;;;;;;;;;;;32.30;26.17;100088.53;4954209;29;638;-67
2022/07/20 10:42:05;;;;;;;;;;;;;;;32.35;25.84;100081.97;4954298;29;873;-67
2022/07/20 10:44:33;;;;;;;;;;;;;;;32.51;26.25;100074.34;4953958;29;1133;-67
2022/07/20 10:47:00;;;;;;;;;;;;;;;32.93;26.46;100074.56;4954025;29;874;-68
2022/07/20 10:49:47;;;;;;;;;;;;;;;32.93;25.33;100078.19;4953914;29;1911;-69
2022/07/20 10:52:29;;;;;;;;;;;;;;;32.78;25.09;100074.38;4923988;29;1135;-68
2022/07/20 10:54:58;;;;;;;;;;;;;;;32.89;25.07;100062.69;4953868;29;854;-66
2022/07/20 10:57:25;;;;;;;;;;;;;;;32.99;25.21;100066.63;4953854;29;886;-66
2022/07/20 11:00:06;;;;;;;;;;;;;;;33.35;25.38;100069.75;4953812;29;831;-66
2022/07/20 11:02:35;;;;;;;;;;;;;;;33.66;25.21;100077.91;4953753;29;1090;-68
2022/07/20 11:05:02;;;;;;;;;;;;;;;33.56;24.71;100060.38;4953521;28;819;-68
2022/07/20 11:07:35;;;;;;;;;;;;;;;33.49;24.25;100063.94;4954063;29;827;-66
2022/07/20 11:10:19;;;;;;;;;;;;;;;33.82;24.81;100064.47;4953564;29;1879;-69
2022/07/20 11:12:53;;;;;;;;;;;;;;;34.12;24.43;100066.84;4953673;29;820;-67
2022/07/20 11:15:20;;;;;;;;;;;;;;;34.10;23.87;100067.38;4953652;29;898;-66
2022/07/20 11:17:47;;;;;;;;;;;;;;;33.94;23.74;100060.75;4953766;29;831;-67
2022/07/20 11:20:17;;;;;;;;;;;;;;;34.47;23.95;100062.47;4953553;29;835;-66
2022/07/20 11:34:57;;;;;;;;;;;;;;;34.62;23.09;100050.31;4953305;29;1197;-66
2022/07/20 11:37:25;;;;;;;;;;;;;;;34.66;23.87;100052.84;4953392;29;929;-67
2022/07/20 11:39:52;;;;;;;;;;;;;;;34.93;23.01;100047.59;4953394;29;835;-67
2022/07/20 11:42:19;;;;;;;;;;;;;;;35.30;23.14;100046.19;4953494;29;886;-68
2022/07/20 11:45:05;;;;;;;;;;;;;;;35.76;22.50;100045.50;4953353;29;815;-68
2022/07/20 11:47:32;;;;;;;;;;;;;;;35.95;22.22;100034.41;4953307;29;1003;-67
2022/07/20 11:50:09;;;;;;;;;;;;;;;36.24;22.03;100042.06;4953229;29;1907;-68
2022/07/20 11:52:40;;;;;;;;;;;;;;;36.53;21.90;100045.41;4953344;29;816;-67
2022/07/20 11:55:08;;;;;;;;;;;;;;;36.32;20.97;100032.06;4953219;29;1785;-66
2022/07/20 11:57:36;;;;;;;;;;;;;;;36.34;20.81;100025.72;4953188;29;886;-68
2022/07/20 12:00:04;;;;;;;;;;;;;;;36.55;21.23;100022.56;4953131;29;1887;-65
2022/07/20 12:02:31;;;;;;;;;;;;;;;36.61;21.20;100017.41;4953073;29;1162;-73
2022/07/20 12:04:58;;;;;;;;;;;;;;;37.05;21.10;100008.34;4953462;29;835;-69
2022/07/20 12:10:25;;;;;;;;;;;;;;;37.91;19.95;100015.06;4953269;29;701;-69
2022/07/20 12:13:04;;;;;;;;;;;;;;;38.20;19.68;100018.25;4953029;29;848;-68
2022/07/20 12:15:31;;;;;;;;;;;;;;;37.30;20.67;100014.19;4954126;28;839;-68
2022/07/20 12:17:58;;;;;;;;;;;;;;;36.47;21.58;100024.72;4956797;29;1894;-69
2022/07/20 12:20:25;;;;;;;;;;;;;;;37.12;20.95;100015.44;4956869;29;800;-70
2022/07/20 12:22:53;;;;;;;;;;;;;;;37.59;19.89;100014.56;4956622;29;832;-69
2022/07/20 12:25:19;;;;;;;;;;;;;;;37.92;21.19;100010.81;4956598;29;803;-69
2022/07/20 12:27:46;;;;;;;;;;;;;;;37.66;21.70;100015.88;4956510;29;828;-69
2022/07/20 12:30:30;;;;;;;;;;;;;;;35.35;24.32;100016.50;4956436;29;909;-68
2022/07/20 12:33:02;;;;;;;;;;;;;;;35.29;25.08;100010.22;4956564;29;1354;-67
2022/07/20 12:35:30;;;;;;;;;;;;;;;35.76;24.47;100011.00;4956695;29;921;-69
2022/07/20 12:37:56;;;;;;;;;;;;;;;36.15;23.31;100006.00;4956247;29;1973;-69
2022/07/20 12:40:30;;;;;;;;;;;;;;;36.54;23.01;100003.78;4956351;29;906;-67
2022/07/20 12:42:56;;;;;;;;;;;;;;;36.90;22.61;100002.69;4956319;29;901;-68
2022/07/20 12:45:23;;;;;;;;;;;;;;;36.82;22.31;99991.19;4956405;29;867;-68
2022/07/20 12:47:49;;;;;;;;;;;;;;;36.72;22.08;99979.56;4956427;29;897;-68
2022/07/20 12:50:15;;;;;;;;;;;;;;;35.37;23.90;99984.34;4956194;29;823;-68
2022/07/20 13:04:53;;;;;;;;;;;;;;;37.26;21.47;99964.09;4956233;29;653;-70
2022/07/20 13:07:19;;;;;;;;;;;;;;;37.31;21.09;99960.19;4955824;29;831;-68
2022/07/20 13:09:46;;;;;;;;;;;;;;;37.24;20.82;99969.66;4955808;29;847;-70
2022/07/20 13:12:13;;;;;;;;;;;;;;;36.99;20.66;99968.25;4955655;29;828;-68
2022/07/20 13:14:40;;;;;;;;;;;;;;;36.93;20.06;99964.06;4955645;29;859;-69
2022/07/20 13:17:06;;;;;;;;;;;;;;;37.33;20.62;99958.25;4955762;29;820;-69
2022/07/20 13:19:33;;;;;;;;;;;;;;;37.30;20.73;99959.44;4955539;29;1966;-68
2022/07/20 13:21:59;;;;;;;;;;;;;;;37.48;20.70;99954.47;4955507;29;876;-69
2022/07/20 13:24:25;;;;;;;;;;;;;;;37.78;20.00;99950.56;4955806;29;749;-73
2022/07/20 13:26:51;;;;;;;;;;;;;;;37.58;20.41;99945.97;4954262;28;832;-69
2022/07/20 13:29:18;;;;;;;;;;;;;;;37.74;19.51;99944.44;4955253;29;902;-67
2022/07/20 13:31:44;;;;;;;;;;;;;;;37.50;19.57;99948.88;4955578;29;926;-70
2022/07/20 13:37:07;;;;;;;;;;;;;;;36.95;21.02;99944.09;4941314;29;1272;-68
2022/07/20 13:39:33;;;;;;;;;;;;;;;37.17;21.01;99946.09;4955115;29;1914;-69
2022/07/20 13:42:00;;;;;;;;;;;;;;;36.96;20.21;99945.63;4955093;29;823;-68
2022/07/20 13:44:26;;;;;;;;;;;;;;;37.13;20.97;99939.22;4955323;29;820;-71
2022/07/20 13:46:53;;;;;;;;;;;;;;;36.95;20.32;99932.56;4955097;29;847;-69
2022/07/20 13:49:21;;;;;;;;;;;;;;;36.61;20.97;99928.16;4937787;29;1286;-68
2022/07/20 13:51:48;;;;;;;;;;;;;;;36.30;21.45;99928.28;4954958;29;960;-70
2022/07/20 13:54:14;;;;;;;;;;;;;;;36.15;21.72;99931.22;4954941;29;796;-69
2022/07/20 13:56:44;;;;;;;;;;;;;;;35.83;21.49;99935.50;4955055;29;903;-76
2022/07/20 13:59:11;;;;;;;;;;;;;;;35.55;22.37;99928.59;4955133;29;1918;-70
2022/07/20 14:01:42;;;;;;;;;;;;;;;35.18;21.77;99915.78;4937840;29;1306;-68
2022/07/20 14:04:13;;;;;;;;;;;;;;;35.20;21.81;99910.22;4954872;29;846;-70